Time;durP1;ratioP1;P1;durP2;ratioP2;P2;SDS_P1;SDS_P2;PMS_P1;PMS_P2;Temp;Humidity;BMP_temperature;BMP_pressure;BME280_temperature;BME280_humidity;BME280_pressure;Samples;Min_cycle;Max_cycle;Signal;HPM_P1;HPM_P2
2022/03/20 00:01:13;;;;;;;14.30;5.57;;;4.30;99.90;;;;;;4865173;29;20374;-85
2022/03/20 00:03:38;;;;;;;14.40;5.43;;;4.30;99.90;;;;;;4864965;29;20130;-85
2022/03/20 00:06:06;;;;;;;13.30;5.20;;;4.20;99.90;;;;;;4881267;29;20100;-85
2022/03/20 00:08:32;;;;;;;11.10;4.93;;;4.10;99.90;;;;;;4864741;29;20476;-85
2022/03/20 00:11:01;;;;;;;11.83;5.00;;;4.10;99.90;;;;;;4864850;29;20094;-85
2022/03/20 00:13:28;;;;;;;13.70;5.70;;;4.30;99.90;;;;;;4880755;29;20057;-84
2022/03/20 00:15:55;;;;;;;13.87;5.47;;;4.20;99.90;;;;;;4865138;29;20049;-85
2022/03/20 00:18:23;;;;;;;14.73;6.13;;;4.10;99.90;;;;;;4881113;29;20048;-85
2022/03/20 00:20:55;;;;;;;11.80;4.93;;;4.20;99.90;;;;;;4883357;29;20050;-85
2022/03/20 00:23:23;;;;;;;12.97;5.43;;;4.10;99.90;;;;;;4863224;29;20049;-85
2022/03/20 00:25:50;;;;;;;12.87;5.57;;;4.10;99.90;;;;;;4863999;29;20057;-85
2022/03/20 00:28:29;;;;;;;15.97;5.43;;;4.10;99.90;;;;;;4863727;29;20059;-85
2022/03/20 00:30:58;;;;;;;13.20;5.50;;;4.10;99.90;;;;;;4864846;29;20052;-85
2022/03/20 00:33:24;;;;;;;14.43;5.83;;;4.10;99.90;;;;;;4864218;29;20472;-85
2022/03/20 00:35:50;;;;;;;13.33;5.20;;;4.10;99.90;;;;;;4880756;29;20497;-85
2022/03/20 00:38:19;;;;;;;15.87;7.00;;;4.10;99.90;;;;;;4864295;29;20144;-85
2022/03/20 00:40:46;;;;;;;14.97;5.50;;;5.00;99.90;;;;;;4881164;29;20041;-85
2022/03/20 00:43:11;;;;;;;14.00;5.70;;;4.00;99.90;;;;;;4880475;29;20409;-85
2022/03/20 00:45:39;;;;;;;14.80;5.87;;;4.10;99.90;;;;;;4879908;29;20068;-85
2022/03/20 00:48:43;;;;;;;14.33;6.27;;;3.80;99.90;;;;;;4863951;29;20052;-85
2022/03/20 00:51:21;;;;;;;16.67;6.67;;;4.10;99.90;;;;;;4823526;29;20058;-84
2022/03/20 00:53:58;;;;;;;14.23;5.77;;;4.00;99.90;;;;;;4808461;29;20306;-84
2022/03/20 00:56:48;;;;;;;14.63;6.37;;;3.90;99.90;;;;;;4876451;29;20057;-84
2022/03/20 00:59:14;;;;;;;18.07;6.90;;;4.00;99.90;;;;;;4880679;29;20049;-84
2022/03/20 01:01:41;;;;;;;15.57;7.40;;;4.00;99.90;;;;;;4880385;29;20621;-85
2022/03/20 01:04:07;;;;;;;15.50;7.37;;;4.00;99.90;;;;;;4880185;29;20104;-84
2022/03/20 01:06:32;;;;;;;14.70;7.00;;;4.00;99.90;;;;;;4863484;29;20049;-84
2022/03/20 01:08:58;;;;;;;17.20;7.20;;;4.00;99.90;;;;;;4879716;29;20053;-84
2022/03/20 01:11:27;;;;;;;17.13;7.00;;;4.00;99.90;;;;;;4880259;29;20043;-85
2022/03/20 01:13:58;;;;;;;15.13;7.67;;;4.00;99.90;;;;;;4863713;29;20093;-84
2022/03/20 01:16:26;;;;;;;16.37;7.90;;;3.90;99.90;;;;;;4862726;29;20041;-84
2022/03/20 01:18:52;;;;;;;14.97;6.87;;;3.90;99.90;;;;;;4880590;29;20049;-85
2022/03/20 01:21:18;;;;;;;14.73;7.10;;;3.90;99.90;;;;;;4880384;29;20055;-85
2022/03/20 01:23:49;;;;;;;13.93;7.50;;;3.90;99.90;;;;;;4878883;29;20068;-84
2022/03/20 01:29:30;;;;;;;16.60;7.00;;;3.70;99.90;;;;;;4878718;29;20170;-84
2022/03/20 01:32:09;;;;;;;13.57;6.43;;;4.10;99.90;;;;;;4883402;29;20056;-84
2022/03/20 01:34:34;;;;;;;15.10;7.07;;;3.40;99.90;;;;;;4863074;29;20060;-85
2022/03/20 01:37:12;;;;;;;16.57;6.97;;;3.50;99.90;;;;;;4863478;29;20041;-85
2022/03/20 01:39:38;;;;;;;17.57;7.50;;;3.50;99.90;;;;;;4908594;23;20048;-84
2022/03/20 01:42:05;;;;;;;16.80;7.07;;;3.50;99.90;;;;;;4917806;29;20043;-85
2022/03/20 01:44:32;;;;;;;15.23;7.23;;;3.40;99.90;;;;;;4899488;29;20048;-85
2022/03/20 01:46:58;;;;;;;16.73;7.30;;;3.40;99.90;;;;;;4900577;29;20053;-85
2022/03/20 01:52:35;;;;;;;15.93;6.60;;;3.30;99.90;;;;;;4876414;29;20086;-85
2022/03/20 01:55:03;;;;;;;15.93;7.00;;;3.10;99.90;;;;;;4916947;29;20075;-85
2022/03/20 01:57:37;;;;;;;14.73;6.80;;;3.30;99.90;;;;;;4899851;29;20051;-84
2022/03/20 02:00:07;;;;;;;17.57;6.73;;;3.00;99.90;;;;;;4900118;29;20052;-85
2022/03/20 02:02:33;;;;;;;14.67;7.07;;;3.30;99.90;;;;;;4915835;29;20551;-84
2022/03/20 02:05:12;;;;;;;15.73;7.27;;;3.20;99.90;;;;;;4900231;29;20052;-85
2022/03/20 02:07:40;;;;;;;15.07;6.90;;;3.90;99.90;;;;;;4921515;29;20071;-85
2022/03/20 02:10:07;;;;;;;19.03;8.47;;;3.10;99.90;;;;;;4901191;29;20083;-85
2022/03/20 02:12:34;;;;;;;15.80;7.60;;;3.10;99.90;;;;;;4915057;29;20090;-84
2022/03/20 02:15:01;;;;;;;17.83;6.83;;;3.00;99.90;;;;;;4916988;29;20052;-85
2022/03/20 02:17:31;;;;;;;17.77;7.67;;;2.90;99.90;;;;;;4899788;29;20048;-84
2022/03/20 02:20:03;;;;;;;17.17;7.40;;;2.90;99.90;;;;;;4899598;29;20099;-84
2022/03/20 02:22:29;;;;;;;16.50;7.97;;;3.40;99.90;;;;;;4916933;29;20083;-85
2022/03/20 02:24:56;;;;;;;19.73;8.00;;;2.80;99.90;;;;;;4900067;29;20108;-85
2022/03/20 02:27:27;;;;;;;15.90;7.33;;;2.80;99.90;;;;;;4914935;29;20411;-84
2022/03/20 02:30:12;;;;;;;15.70;7.50;;;2.60;99.90;;;;;;4916857;29;20048;-85
2022/03/20 02:32:52;;;;;;;16.00;7.70;;;2.70;99.90;;;;;;4916982;29;20088;-84
2022/03/20 02:35:19;;;;;;;15.50;7.77;;;3.70;99.90;;;;;;4916234;29;20044;-84
2022/03/20 02:37:52;;;;;;;16.73;7.47;;;2.70;99.90;;;;;;4899668;29;20047;-84
2022/03/20 02:40:21;;;;;;;17.77;8.25;;;2.60;99.90;;;;;;4916415;29;20044;-85
2022/03/20 02:42:48;;;;;;;17.47;8.00;;;2.60;99.90;;;;;;4916904;29;20052;-85
2022/03/20 02:45:20;;;;;;;18.47;8.30;;;2.60;99.90;;;;;;4918977;29;20040;-84
2022/03/20 02:47:47;;;;;;;16.90;7.97;;;2.60;99.90;;;;;;4915282;29;20130;-84
2022/03/20 02:50:24;;;;;;;17.23;7.83;;;2.50;99.90;;;;;;4899691;29;20107;-84
2022/03/20 02:53:13;;;;;;;17.43;8.13;;;2.50;99.90;;;;;;4916903;29;20048;-85
2022/03/20 02:55:47;;;;;;;16.23;8.20;;;2.50;99.90;;;;;;4916395;29;20040;-84
2022/03/20 02:58:15;;;;;;;16.23;7.20;;;2.40;99.90;;;;;;4916086;29;20503;-84
2022/03/20 03:00:42;;;;;;;20.10;8.57;;;2.40;99.90;;;;;;4899574;29;20044;-84
2022/03/20 03:03:11;;;;;;;18.27;8.33;;;2.40;99.90;;;;;;4898789;29;20115;-84
2022/03/20 03:05:37;;;;;;;16.60;8.47;;;2.40;99.90;;;;;;4899586;29;20052;-85
2022/03/20 03:10:56;;;;;;;18.93;8.70;;;2.30;99.90;;;;;;4916113;29;20064;-85
2022/03/20 03:13:26;;;;;;;17.03;8.10;;;2.30;99.90;;;;;;4899292;29;20055;-85
2022/03/20 03:15:53;;;;;;;18.60;8.57;;;2.30;99.90;;;;;;4916090;29;20155;-84
2022/03/20 03:18:23;;;;;;;20.37;9.37;;;2.30;99.90;;;;;;4899967;29;20055;-85
2022/03/20 03:20:49;;;;;;;17.50;8.50;;;2.40;99.90;;;;;;4905245;29;20056;-85
2022/03/20 03:23:16;;;;;;;17.63;8.50;;;2.30;99.90;;;;;;4916000;29;20079;-84
2022/03/20 03:25:42;;;;;;;19.20;8.77;;;2.20;99.90;;;;;;4899463;29;20059;-84
2022/03/20 03:28:09;;;;;;;23.33;9.40;;;2.20;99.90;;;;;;4916724;29;20571;-85
2022/03/20 03:30:36;;;;;;;17.37;8.23;;;2.20;99.90;;;;;;4915509;29;20052;-84
2022/03/20 03:33:02;;;;;;;18.27;9.53;;;2.20;99.90;;;;;;4916449;29;20048;-85
2022/03/20 03:35:43;;;;;;;19.97;8.93;;;2.10;99.90;;;;;;4915714;29;20040;-85
2022/03/20 03:38:17;;;;;;;19.83;9.80;;;2.10;99.90;;;;;;4915495;29;20051;-84
2022/03/20 03:40:45;;;;;;;19.88;9.90;;;2.10;99.90;;;;;;4899298;29;20052;-84
2022/03/20 03:43:11;;;;;;;18.77;9.70;;;2.10;99.90;;;;;;4916076;29;20055;-85
2022/03/20 03:45:40;;;;;;;18.83;9.17;;;2.00;99.90;;;;;;4914874;29;20063;-85
2022/03/20 03:48:06;;;;;;;19.03;9.00;;;2.00;99.90;;;;;;4899233;29;20510;-85
2022/03/20 03:50:33;;;;;;;22.07;9.70;;;1.80;99.90;;;;;;4916085;29;20385;-84
2022/03/20 03:53:03;;;;;;;18.93;9.90;;;2.00;99.90;;;;;;4916085;29;20076;-84
2022/03/20 03:55:30;;;;;;;22.20;10.27;;;2.50;99.90;;;;;;4921309;29;20570;-85
2022/03/20 03:57:55;;;;;;;19.70;10.07;;;1.90;99.90;;;;;;4899504;29;20400;-85
2022/03/20 04:00:21;;;;;;;21.83;10.80;;;1.90;99.90;;;;;;4919192;29;20059;-85
2022/03/20 04:02:48;;;;;;;20.60;10.33;;;1.70;99.90;;;;;;4918267;29;20147;-84
2022/03/20 04:05:17;;;;;;;18.77;10.37;;;1.70;99.90;;;;;;4918087;29;20563;-84
2022/03/20 04:07:47;;;;;;;23.07;11.23;;;2.00;99.90;;;;;;4902714;29;20433;-84
2022/03/20 04:10:15;;;;;;;19.10;10.13;;;1.80;99.90;;;;;;4919400;29;20059;-84
2022/03/20 04:12:42;;;;;;;22.30;11.37;;;1.80;99.90;;;;;;4901344;29;20052;-84
2022/03/20 04:15:08;;;;;;;21.60;10.53;;;1.80;99.90;;;;;;4919465;29;20190;-84
2022/03/20 04:17:34;;;;;;;18.80;10.30;;;1.80;99.90;;;;;;4918589;29;20052;-85
2022/03/20 04:20:01;;;;;;;21.77;10.87;;;1.70;99.90;;;;;;4901471;29;20059;-84
2022/03/20 04:22:29;;;;;;;20.27;11.53;;;1.70;99.90;;;;;;4902020;29;20048;-85
2022/03/20 04:24:55;;;;;;;22.57;11.00;;;1.90;99.90;;;;;;4901765;29;20048;-84
2022/03/20 04:27:23;;;;;;;21.70;11.27;;;1.70;99.90;;;;;;4901263;29;20040;-84
2022/03/20 04:29:49;;;;;;;20.73;11.20;;;1.70;99.90;;;;;;4904077;29;20040;-83
2022/03/20 04:32:15;;;;;;;20.47;10.57;;;1.70;99.90;;;;;;4906966;29;20547;-84
2022/03/20 04:34:43;;;;;;;21.30;11.23;;;1.70;99.90;;;;;;4901715;29;20056;-84
2022/03/20 04:37:10;;;;;;;22.73;10.47;;;1.70;99.90;;;;;;4901780;29;20502;-84
2022/03/20 04:39:37;;;;;;;19.83;10.80;;;1.70;99.90;;;;;;4901643;29;20060;-84
2022/03/20 04:42:04;;;;;;;22.53;11.80;;;1.70;99.90;;;;;;4901283;29;20047;-84
2022/03/20 04:44:30;;;;;;;22.57;11.10;;;1.70;99.90;;;;;;4901416;29;20066;-84
2022/03/20 04:46:56;;;;;;;23.27;11.33;;;1.70;99.90;;;;;;4918224;29;20488;-84
2022/03/20 05:00:21;;;;;;;;;;;1.60;99.90;;;;;;4917192;29;20060;-84
2022/03/20 05:02:47;;;;;;;21.10;11.90;;;1.60;99.90;;;;;;4906852;29;19923;-84
2022/03/20 05:05:14;;;;;;;23.40;11.70;;;1.60;99.90;;;;;;4918301;29;20100;-85
2022/03/20 05:07:40;;;;;;;22.80;12.37;;;1.50;99.90;;;;;;4903216;29;20048;-85
2022/03/20 05:15:36;;;;;;;22.50;12.23;;;1.50;99.90;;;;;;4917371;29;20044;-84
2022/03/20 05:18:08;;;;;;;24.30;12.20;;;1.50;99.90;;;;;;4918595;29;20051;-84
2022/03/20 05:20:34;;;;;;;22.20;12.33;;;1.50;99.90;;;;;;4900661;29;20048;-84
2022/03/20 05:23:01;;;;;;;21.10;11.93;;;1.50;99.90;;;;;;4900492;29;20142;-85
2022/03/20 05:25:30;;;;;;;24.70;12.60;;;1.50;99.90;;;;;;4900848;29;20044;-84
2022/03/20 05:27:57;;;;;;;24.17;12.60;;;1.50;99.90;;;;;;4900554;29;20059;-84
2022/03/20 05:30:23;;;;;;;23.27;12.97;;;1.50;99.90;;;;;;4917530;29;20048;-84
2022/03/20 05:32:50;;;;;;;22.37;11.47;;;1.50;99.90;;;;;;4900777;29;20389;-84
2022/03/20 05:35:16;;;;;;;26.50;12.80;;;1.50;99.90;;;;;;4917487;29;20152;-84
2022/03/20 05:37:42;;;;;;;25.07;11.97;;;1.50;99.90;;;;;;4917063;29;20452;-84
2022/03/20 05:40:09;;;;;;;24.47;12.70;;;1.50;99.90;;;;;;4900650;29;20060;-84
2022/03/20 05:42:36;;;;;;;21.63;11.80;;;1.50;99.90;;;;;;4905625;29;20104;-84
2022/03/20 05:45:05;;;;;;;22.83;12.30;;;1.50;99.90;;;;;;4918642;29;20064;-84
2022/03/20 05:47:33;;;;;;;21.90;12.60;;;1.50;99.90;;;;;;4917429;29;20642;-84
2022/03/20 05:50:01;;;;;;;24.83;12.40;;;1.50;99.90;;;;;;4917193;29;20500;-84
2022/03/20 05:52:31;;;;;;;22.53;12.27;;;1.50;99.90;;;;;;4916900;29;20060;-84
2022/03/20 05:54:58;;;;;;;24.70;13.03;;;1.50;99.90;;;;;;4917350;29;20396;-85
2022/03/20 06:00:16;;;;;;;24.50;12.77;;;1.50;99.90;;;;;;4900279;29;20052;-84
2022/03/20 06:02:44;;;;;;;24.98;12.35;;;1.60;99.90;;;;;;4917531;29;20123;-84
2022/03/20 06:05:11;;;;;;;23.50;11.83;;;1.60;99.90;;;;;;4899848;29;20192;-84
2022/03/20 06:07:52;;;;;;;25.77;12.73;;;1.60;99.90;;;;;;4900483;29;20063;-84
2022/03/20 06:10:19;;;;;;;25.37;12.97;;;1.60;99.90;;;;;;4900045;29;20064;-84
2022/03/20 06:12:45;;;;;;;22.67;12.77;;;1.70;99.90;;;;;;4916597;29;20044;-84
2022/03/20 06:15:12;;;;;;;24.60;12.93;;;1.70;99.90;;;;;;4917253;29;20043;-84
2022/03/20 06:17:45;;;;;;;23.03;12.80;;;1.70;99.90;;;;;;4902450;29;20052;-83
2022/03/20 06:20:13;;;;;;;22.83;13.03;;;1.70;99.90;;;;;;4904442;29;20420;-84
2022/03/20 06:22:38;;;;;;;24.50;13.17;;;1.70;99.90;;;;;;4900011;29;20048;-84
2022/03/20 06:25:09;;;;;;;22.13;11.73;;;1.80;99.90;;;;;;4916755;29;20147;-84
2022/03/20 06:27:45;;;;;;;26.03;13.47;;;1.80;99.90;;;;;;4899117;29;20067;-84
2022/03/20 06:30:13;;;;;;;23.07;12.90;;;2.10;99.90;;;;;;4900011;29;20083;-85
2022/03/20 06:32:42;;;;;;;23.40;12.03;;;1.70;99.90;;;;;;4916115;29;20040;-85
2022/03/20 06:35:08;;;;;;;24.67;12.77;;;1.80;99.90;;;;;;4899704;29;20048;-84
2022/03/20 06:37:45;;;;;;;25.43;12.63;;;1.80;99.90;;;;;;4899291;29;20468;-84
2022/03/20 06:40:12;;;;;;;23.83;12.60;;;1.90;99.90;;;;;;4898959;29;20067;-84
2022/03/20 06:42:38;;;;;;;24.77;13.10;;;1.90;99.90;;;;;;4899839;29;20137;-84
2022/03/20 06:45:07;;;;;;;25.90;13.67;;;2.00;99.90;;;;;;4916798;29;20499;-84
2022/03/20 06:47:33;;;;;;;23.53;12.37;;;2.10;99.90;;;;;;4916004;29;20044;-84
2022/03/20 06:50:00;;;;;;;21.80;12.90;;;2.10;99.90;;;;;;4916631;29;20044;-84
2022/03/20 06:52:28;;;;;;;24.80;13.33;;;2.20;99.90;;;;;;4915469;29;20056;-84
2022/03/20 06:54:55;;;;;;;23.93;13.07;;;2.20;99.90;;;;;;4903621;29;20056;-84
2022/03/20 06:57:23;;;;;;;26.80;13.00;;;2.30;99.90;;;;;;4916548;29;20091;-84
2022/03/20 06:59:51;;;;;;;24.50;12.83;;;2.30;99.90;;;;;;4916632;29;20047;-84
2022/03/20 07:02:18;;;;;;;21.67;12.57;;;2.40;99.90;;;;;;4898691;29;20407;-84
2022/03/20 07:04:47;;;;;;;24.17;13.20;;;2.50;99.90;;;;;;4899494;29;20063;-84
2022/03/20 07:07:15;;;;;;;26.00;12.63;;;2.50;99.90;;;;;;4899262;29;20135;-84
2022/03/20 07:09:40;;;;;;;22.73;12.57;;;2.50;99.90;;;;;;4915983;29;20044;-84
2022/03/20 07:12:08;;;;;;;22.57;12.47;;;2.60;99.90;;;;;;4899479;29;20183;-84
2022/03/20 07:14:34;;;;;;;23.17;12.33;;;2.70;99.90;;;;;;4915847;29;20480;-84
2022/03/20 07:17:09;;;;;;;24.57;13.07;;;2.70;99.90;;;;;;4915935;29;20063;-91
2022/03/20 07:19:51;;;;;;;25.33;12.63;;;2.70;99.90;;;;;;4899487;29;20044;-88
2022/03/20 07:22:18;;;;;;;23.87;12.90;;;2.70;99.90;;;;;;4898583;29;20519;-81
2022/03/20 07:24:50;;;;;;;26.50;13.33;;;2.90;99.90;;;;;;4899374;29;20134;-80
2022/03/20 07:30:00;;;;;;;;;;;2.80;99.90;;;;;;4916353;29;20052;-79
2022/03/20 07:32:25;;;;;;;24.10;12.50;;;3.10;99.90;;;;;;4916226;29;19923;-80
2022/03/20 07:34:51;;;;;;;23.10;13.40;;;3.20;99.90;;;;;;4919651;29;20051;-80
2022/03/20 07:37:18;;;;;;;26.43;13.87;;;3.20;99.90;;;;;;4902316;29;20052;-80
2022/03/20 07:39:49;;;;;;;21.70;12.20;;;3.30;99.90;;;;;;4919616;29;20092;-80
2022/03/20 07:42:15;;;;;;;26.43;13.67;;;3.40;99.90;;;;;;4919422;29;20059;-79
2022/03/20 07:44:45;;;;;;;23.73;12.87;;;3.50;99.90;;;;;;4902054;29;20056;-79
2022/03/20 07:47:17;;;;;;;23.93;13.60;;;3.60;99.90;;;;;;4902391;29;20507;-80
2022/03/20 07:49:48;;;;;;;23.23;12.77;;;3.60;99.90;;;;;;4914651;29;20044;-80
2022/03/20 07:52:13;;;;;;;27.10;14.07;;;3.70;99.90;;;;;;4891902;29;20040;-78
2022/03/20 07:54:39;;;;;;;23.90;12.93;;;3.80;99.90;;;;;;4919518;29;20051;-78
2022/03/20 07:57:05;;;;;;;21.60;12.53;;;3.90;99.90;;;;;;4918623;29;20048;-79
2022/03/20 07:59:31;;;;;;;23.83;12.93;;;5.20;99.90;;;;;;4919279;29;20374;-79
2022/03/20 08:01:56;;;;;;;21.43;12.90;;;4.00;99.90;;;;;;4918893;29;20163;-79
2022/03/20 08:04:23;;;;;;;25.70;14.63;;;4.10;99.90;;;;;;4918190;29;20110;-79
2022/03/20 08:06:49;;;;;;;24.43;13.33;;;4.20;99.90;;;;;;4902212;29;20040;-79
2022/03/20 08:09:14;;;;;;;27.60;12.93;;;4.20;99.90;;;;;;4918527;29;20052;-79
2022/03/20 08:11:40;;;;;;;22.77;14.07;;;4.30;99.90;;;;;;4918641;29;20054;-79
2022/03/20 08:14:08;;;;;;;23.17;13.90;;;4.30;99.90;;;;;;4902367;29;20052;-79
2022/03/20 08:16:36;;;;;;;22.13;12.97;;;4.30;99.90;;;;;;4918682;29;20083;-79
2022/03/20 08:19:01;;;;;;;23.57;13.27;;;4.40;99.90;;;;;;4901216;29;20115;-79
2022/03/20 08:21:28;;;;;;;26.83;14.17;;;4.40;99.90;;;;;;4901752;29;20044;-79
2022/03/20 08:23:53;;;;;;;24.30;14.20;;;4.50;99.90;;;;;;4918774;29;20087;-79
2022/03/20 08:26:20;;;;;;;24.20;14.03;;;4.50;99.90;;;;;;4893660;29;20086;-78
2022/03/20 08:28:46;;;;;;;24.07;13.50;;;4.60;99.90;;;;;;4892985;29;20063;-78
2022/03/20 08:31:12;;;;;;;27.27;14.10;;;4.70;99.90;;;;;;4890888;29;20397;-78
2022/03/20 08:33:40;;;;;;;25.47;14.20;;;4.80;99.90;;;;;;4903617;29;20040;-78
2022/03/20 08:36:06;;;;;;;23.33;13.83;;;4.80;99.90;;;;;;4899834;29;20048;-79
2022/03/20 08:38:33;;;;;;;23.97;13.87;;;4.80;99.90;;;;;;4898920;29;20635;-78
2022/03/20 08:40:59;;;;;;;21.40;12.90;;;4.90;99.90;;;;;;4901565;29;20052;-79
2022/03/20 08:43:25;;;;;;;22.37;13.27;;;5.00;99.90;;;;;;4882219;29;20052;-78
2022/03/20 08:45:51;;;;;;;25.53;14.80;;;5.10;99.90;;;;;;4897289;29;20052;-78
2022/03/20 08:48:20;;;;;;;24.83;13.80;;;5.10;99.90;;;;;;4881924;29;20063;-80
2022/03/20 08:50:48;;;;;;;25.07;13.70;;;5.20;99.90;;;;;;4899088;29;20476;-80
2022/03/20 08:53:17;;;;;;;25.33;14.70;;;5.30;99.90;;;;;;4881510;29;20488;-79
2022/03/20 08:55:42;;;;;;;25.43;14.27;;;5.40;99.90;;;;;;4899550;29;20056;-79
2022/03/20 08:58:08;;;;;;;25.17;14.83;;;5.50;99.90;;;;;;4899351;29;20045;-79
2022/03/20 09:00:34;;;;;;;24.93;14.67;;;5.50;99.90;;;;;;4898821;29;20396;-79
2022/03/20 09:03:00;;;;;;;27.13;14.80;;;5.60;99.90;;;;;;4899503;29;20045;-79
2022/03/20 09:05:26;;;;;;;27.93;14.97;;;5.70;99.90;;;;;;4898453;29;20050;-79
2022/03/20 09:07:53;;;;;;;27.40;15.67;;;5.80;99.90;;;;;;4881757;29;20045;-80
2022/03/20 09:10:19;;;;;;;26.97;14.60;;;5.90;99.90;;;;;;4899061;29;20056;-79
2022/03/20 09:12:45;;;;;;;25.93;15.30;;;6.00;99.90;;;;;;4882211;29;20441;-79
2022/03/20 09:15:13;;;;;;;26.23;15.93;;;6.10;99.90;;;;;;4898529;29;20139;-80
2022/03/20 09:20:24;;;;;;;24.23;15.03;;;6.20;99.90;;;;;;4881528;29;20056;-79
2022/03/20 09:22:50;;;;;;;25.07;14.97;;;6.30;99.90;;;;;;4898648;29;20044;-79
2022/03/20 09:25:16;;;;;;;26.93;15.40;;;6.30;99.90;;;;;;4898431;29;20052;-79
2022/03/20 09:27:48;;;;;;;26.53;15.77;;;6.40;99.90;;;;;;4881687;29;20044;-79
2022/03/20 09:30:14;;;;;;;25.63;15.87;;;6.50;99.90;;;;;;4881425;29;20464;-79
2022/03/20 09:32:40;;;;;;;24.73;15.57;;;6.60;99.90;;;;;;4898899;29;20047;-79
2022/03/20 09:35:06;;;;;;;26.60;15.60;;;6.60;99.90;;;;;;4898708;29;20123;-79
2022/03/20 09:37:32;;;;;;;29.63;16.53;;;6.70;99.90;;;;;;4897831;29;20044;-80
2022/03/20 09:39:57;;;;;;;27.07;16.03;;;6.70;99.90;;;;;;4898436;29;20560;-79
2022/03/20 09:42:23;;;;;;;27.83;16.37;;;6.80;99.90;;;;;;4880950;29;20052;-80
2022/03/20 09:44:51;;;;;;;25.13;14.47;;;6.90;99.90;;;;;;4898639;29;20092;-80
2022/03/20 09:47:17;;;;;;;25.37;15.40;;;6.90;99.90;;;;;;4881268;29;20044;-81
2022/03/20 09:49:47;;;;;;;26.63;16.33;;;7.00;99.90;;;;;;4880755;29;20063;-80
2022/03/20 09:52:14;;;;;;;26.40;16.40;;;7.10;99.90;;;;;;4881411;29;20493;-80
2022/03/20 09:54:39;;;;;;;29.50;15.90;;;7.20;99.90;;;;;;4898251;29;20053;-80
2022/03/20 09:57:06;;;;;;;27.37;16.53;;;7.30;99.90;;;;;;4897504;29;20067;-79
2022/03/20 09:59:34;;;;;;;26.77;16.47;;;7.90;99.90;;;;;;4881094;29;20055;-80
2022/03/20 10:02:07;;;;;;;27.03;16.00;;;7.60;99.90;;;;;;4898201;29;20051;-80
2022/03/20 10:04:50;;;;;;;26.85;17.30;;;7.60;99.90;;;;;;4897091;29;20108;-79
2022/03/20 10:07:24;;;;;;;25.05;15.85;;;7.90;99.90;;;;;;4900250;29;20044;-79
2022/03/20 10:10:08;;;;;;;27.90;16.00;;;8.00;99.20;;;;;;4889691;29;20044;-79
2022/03/20 10:12:35;;;;;;;;;;;8.10;99.20;;;;;;4916672;29;20073;-79
2022/03/20 10:15:02;;;;;;;28.42;16.65;;;8.10;98.50;;;;;;4900191;29;19929;-79
2022/03/20 10:17:28;;;;;;;26.93;15.93;;;8.20;98.90;;;;;;4899393;29;20468;-80
2022/03/20 10:19:55;;;;;;;27.90;16.58;;;8.30;99.90;;;;;;4916308;29;20126;-79
2022/03/20 10:22:21;;;;;;;28.37;16.37;;;8.30;98.90;;;;;;4899161;29;20412;-80
2022/03/20 10:24:51;;;;;;;28.50;17.15;;;8.30;99.10;;;;;;4899149;29;20060;-80
2022/03/20 10:27:17;;;;;;;27.90;17.33;;;8.50;99.30;;;;;;4916414;29;20044;-79
2022/03/20 10:29:55;;;;;;;30.38;16.85;;;8.60;98.40;;;;;;4896307;29;20049;-78
2022/03/20 10:32:21;;;;;;;27.80;17.20;;;8.80;98.70;;;;;;4889504;29;20053;-79
2022/03/20 10:35:01;;;;;;;26.40;17.30;;;9.00;98.90;;;;;;4905422;29;20556;-79
2022/03/20 10:37:47;;;;;;;29.42;17.85;;;9.10;99.00;;;;;;4890772;29;20040;-79
2022/03/20 10:40:16;;;;;;;27.08;17.55;;;9.30;97.00;;;;;;4905193;29;20496;-79
2022/03/20 10:42:44;;;;;;;26.13;17.00;;;9.50;98.80;;;;;;4905867;29;20040;-78
2022/03/20 10:45:10;;;;;;;29.77;17.35;;;9.60;98.10;;;;;;4907522;29;20040;-78
2022/03/20 10:47:35;;;;;;;26.75;17.17;;;9.70;97.40;;;;;;4888731;29;20070;-78
2022/03/20 10:50:09;;;;;;;28.35;17.75;;;9.80;96.70;;;;;;4889342;29;20464;-78
2022/03/20 10:52:36;;;;;;;25.40;16.73;;;9.80;95.30;;;;;;4906861;29;20403;-79
2022/03/20 10:55:12;;;;;;;27.90;18.17;;;9.90;95.90;;;;;;4889690;29;20049;-79
2022/03/20 10:57:39;;;;;;;27.73;18.35;;;9.80;95.40;;;;;;4890336;29;20044;-79
2022/03/20 11:00:11;;;;;;;27.33;16.95;;;9.90;95.50;;;;;;4907084;29;20040;-79
2022/03/20 11:02:39;;;;;;;29.42;17.40;;;10.10;95.20;;;;;;4906716;29;20052;-79
2022/03/20 11:05:06;;;;;;;27.00;18.27;;;10.30;96.00;;;;;;4907893;29;20048;-80
2022/03/20 11:07:31;;;;;;;26.48;18.13;;;10.50;96.20;;;;;;4916145;29;20523;-80
2022/03/20 11:10:00;;;;;;;27.00;19.20;;;10.50;94.40;;;;;;4920459;29;20051;-80
2022/03/20 11:12:34;;;;;;;27.55;18.48;;;10.50;95.00;;;;;;4909937;29;20040;-80
2022/03/20 11:15:06;;;;;;;27.25;17.73;;;11.20;94.60;;;;;;4909584;29;20392;-80
2022/03/20 11:17:41;;;;;;;27.77;19.13;;;10.70;94.70;;;;;;4904820;29;20099;-79
2022/03/20 11:20:07;;;;;;;25.92;18.20;;;10.80;93.70;;;;;;4910075;29;20095;-80
2022/03/20 11:22:36;;;;;;;27.20;18.98;;;10.70;94.00;;;;;;4890846;29;20084;-79
2022/03/20 11:25:05;;;;;;;27.58;18.63;;;10.60;92.30;;;;;;4889902;29;20411;-80
2022/03/20 11:27:35;;;;;;;29.48;17.60;;;10.70;93.60;;;;;;4909965;29;20052;-80
2022/03/20 11:30:03;;;;;;;26.55;17.92;;;10.90;92.80;;;;;;4905926;29;20479;-79
2022/03/20 11:32:30;;;;;;;27.38;19.38;;;10.90;92.20;;;;;;4907429;29;20048;-80
2022/03/20 11:34:56;;;;;;;26.13;18.52;;;10.80;92.30;;;;;;4906016;29;20108;-80
2022/03/20 11:37:22;;;;;;;28.20;18.92;;;10.90;92.40;;;;;;4906045;29;20885;-80
2022/03/20 11:40:07;;;;;;;27.25;19.05;;;11.00;92.60;;;;;;4905733;29;20139;-80
2022/03/20 11:42:32;;;;;;;28.20;18.80;;;11.00;91.60;;;;;;4891776;29;20427;-80
2022/03/20 11:45:07;;;;;;;26.10;17.95;;;11.20;92.50;;;;;;4889689;29;20048;-79
2022/03/20 11:47:38;;;;;;;26.90;19.33;;;11.20;91.90;;;;;;4906301;29;20048;-79
2022/03/20 11:50:24;;;;;;;31.55;19.00;;;11.30;92.50;;;;;;4905445;29;20048;-79
2022/03/20 11:53:04;;;;;;;27.85;18.15;;;11.30;90.70;;;;;;4912424;29;20043;-80
2022/03/20 11:55:37;;;;;;;26.13;18.02;;;11.30;90.50;;;;;;4897460;29;20059;-80
2022/03/20 11:58:24;;;;;;;27.25;19.42;;;11.30;91.50;;;;;;4888008;29;20083;-80
2022/03/20 12:01:09;;;;;;;26.00;18.08;;;11.20;92.00;;;;;;4912409;29;20088;-80
2022/03/20 12:03:56;;;;;;;29.80;18.60;;;11.30;91.20;;;;;;4918282;29;20135;-81
2022/03/20 12:06:34;;;;;;;27.40;18.65;;;11.60;92.00;;;;;;4901863;29;20411;-80
2022/03/20 12:09:21;;;;;;;28.67;20.40;;;11.70;92.10;;;;;;4919061;29;20059;-81
2022/03/20 12:12:05;;;;;;;26.17;18.60;;;11.80;91.90;;;;;;4918603;29;20044;-81
2022/03/20 12:14:32;;;;;;;;;;;11.60;91.40;;;;;;4898886;29;20052;-80
2022/03/20 12:17:00;;;;;;;26.85;18.40;;;11.70;90.50;;;;;;4903619;29;19923;-81
2022/03/20 12:19:36;;;;;;;28.52;19.23;;;11.70;91.20;;;;;;4901001;29;20484;-81
2022/03/20 12:22:02;;;;;;;28.77;19.05;;;11.80;90.50;;;;;;4910467;29;20484;-80
2022/03/20 12:24:37;;;;;;;29.50;19.80;;;12.30;91.40;;;;;;4898492;29;20060;-80
2022/03/20 12:27:24;;;;;;;27.83;19.25;;;12.40;90.00;;;;;;4899628;29;20477;-80
2022/03/20 12:29:50;;;;;;;27.70;19.33;;;12.50;90.20;;;;;;4899887;29;20044;-80
2022/03/20 12:32:17;;;;;;;27.98;19.58;;;12.60;90.30;;;;;;4886110;29;20104;-79
2022/03/20 12:35:04;;;;;;;25.80;19.85;;;12.80;90.70;;;;;;4889080;29;20055;-80
2022/03/20 12:37:29;;;;;;;28.05;20.23;;;12.60;88.40;;;;;;4873866;29;20103;-80
2022/03/20 12:40:09;;;;;;;28.02;18.92;;;12.20;89.50;;;;;;4904559;29;20135;-79
2022/03/20 12:42:40;;;;;;;26.55;19.45;;;11.90;88.10;;;;;;4904496;29;20044;-79
2022/03/20 12:45:08;;;;;;;26.85;19.98;;;11.70;90.10;;;;;;4903524;29;20048;-80
2022/03/20 12:47:35;;;;;;;28.50;19.92;;;11.60;89.90;;;;;;4904123;29;20040;-79
2022/03/20 12:50:11;;;;;;;27.52;18.88;;;11.50;90.20;;;;;;4887476;29;20052;-79
2022/03/20 12:52:38;;;;;;;28.92;19.10;;;11.40;90.10;;;;;;4896930;29;20044;-80
2022/03/20 12:55:09;;;;;;;27.10;18.98;;;11.20;90.30;;;;;;4891597;29;20170;-80
2022/03/20 12:57:47;;;;;;;28.02;18.67;;;11.20;90.50;;;;;;4904368;29;20082;-80
2022/03/20 13:00:17;;;;;;;27.98;19.15;;;11.50;91.00;;;;;;4905469;29;20041;-79
2022/03/20 13:02:59;;;;;;;28.77;19.88;;;12.00;91.00;;;;;;4907414;29;20055;-80
2022/03/20 13:05:34;;;;;;;27.70;19.42;;;12.50;89.00;;;;;;4910128;29;20055;-79
2022/03/20 13:08:00;;;;;;;28.98;19.38;;;12.50;90.40;;;;;;4895185;29;20045;-79
2022/03/20 13:10:33;;;;;;;28.35;18.98;;;12.30;90.20;;;;;;4910292;29;20098;-79
2022/03/20 13:13:02;;;;;;;29.38;19.80;;;11.90;89.10;;;;;;4908092;29;20036;-79
2022/03/20 13:15:33;;;;;;;25.42;17.90;;;12.00;90.30;;;;;;4902878;29;20533;-79
2022/03/20 13:17:59;;;;;;;28.30;19.08;;;12.10;90.50;;;;;;4893734;29;20044;-78
2022/03/20 13:20:29;;;;;;;24.90;18.13;;;12.00;90.10;;;;;;4905523;29;20045;-79
2022/03/20 13:22:56;;;;;;;27.00;19.48;;;12.10;90.70;;;;;;4891334;29;20044;-78